Skip Navigation Links Skip Navigation Links

Current Weather

Madinah, Saudi Arabia

For information only: do not use for flight planning or navigation.
Latest weather
Observation time Tuesday, October 19, 2021 12:00 PM +03
Local time Tuesday, October 19, 2021 12:49 PM +03
Flight conditions Visual Meteorological Conditions
Winds
Wind direction South-Southeast (160°)
Wind speed 5 mph
Visibility 6.2 mi.
Sky condition
Ceiling unlimited
Sky clear
Temperature 97°F
Dewpoint 23°F
Altimeter 30.03 in.Hg
Derived measurements
Relative humidity 7%
Heat index 97°F
Density altitude 4415 ft.
Remarks
Ceiling and visibility OK.
No significant changes expected in the next two hours.
METAR OEMA 190900Z 16004KT CAVOK 36/M05 Q1017 NOSIG

Settings

Location code

InnerDrive.Weather 4.0.6770.0 Release CLR 4.0.30319.42000
Copyright ©2018 Inner Drive Technology. All rights reserved. Portions Copyright ©1986-2018 David Braverman.

Find weather

Site navigation


Skip Navigation Links

Place info

Page info

PayPal - The safer, easier way to pay online!

Return home.

Copyright ©2021 Inner Drive Technology. Purveyors of fine, hand-crafted computer software. Page printed 2021-10-19T09:49:16 UTC.